Time;durP1;ratioP1;P1;durP2;ratioP2;P2;SDS_P1;SDS_P2;PMS_P1;PMS_P2;Temp;Humidity;BMP_temperature;BMP_pressure;BME280_temperature;BME280_humidity;BME280_pressure;Samples;Min_cycle;Max_cycle;Signal;HPM_P1;HPM_P2
2021/11/09 00:00:42;;;;;;;100.30;73.47;;;6.40;99.90;;;;;;5099754;28;20573;-86
2021/11/09 00:03:13;;;;;;;100.65;75.85;;;6.40;99.90;;;;;;5098588;28;20179;-86
2021/11/09 00:05:56;;;;;;;108.55;73.05;;;6.50;99.90;;;;;;5098701;28;20167;-86
2021/11/09 00:08:29;;;;;;;97.25;73.13;;;6.40;99.90;;;;;;5098194;28;20597;-85
2021/11/09 00:10:56;;;;;;;102.00;65.28;;;6.40;99.90;;;;;;5098688;28;20278;-85
2021/11/09 00:13:22;;;;;;;93.13;62.30;;;6.30;99.90;;;;;;5101711;28;20597;-86
2021/11/09 00:15:52;;;;;;;97.80;76.15;;;6.20;99.90;;;;;;5102189;28;20166;-85
2021/11/09 00:18:18;;;;;;;94.55;71.95;;;6.20;99.90;;;;;;5104183;28;20183;-86
2021/11/09 00:20:44;;;;;;;103.17;71.57;;;6.20;99.90;;;;;;5103421;28;20507;-86
2021/11/09 00:23:10;;;;;;;95.93;66.87;;;6.10;99.90;;;;;;5103550;28;20393;-85
2021/11/09 00:25:37;;;;;;;91.75;64.65;;;6.10;99.90;;;;;;5103835;28;20190;-85
2021/11/09 00:28:07;;;;;;;92.82;61.55;;;6.00;99.90;;;;;;5104474;28;20175;-86
2021/11/09 00:30:33;;;;;;;95.13;65.22;;;6.00;99.90;;;;;;5104416;28;20183;-85
2021/11/09 00:33:00;;;;;;;98.20;62.97;;;6.00;99.90;;;;;;5103452;28;20215;-86
2021/11/09 00:35:29;;;;;;;92.60;65.82;;;5.90;99.90;;;;;;5104758;28;20167;-85
2021/11/09 00:37:56;;;;;;;97.32;71.53;;;6.00;99.90;;;;;;5104728;28;20159;-85
2021/11/09 00:40:24;;;;;;;94.38;63.00;;;6.00;99.90;;;;;;5103283;28;20166;-85
2021/11/09 00:42:50;;;;;;;98.00;74.63;;;6.00;99.90;;;;;;5104239;28;20167;-85
2021/11/09 00:45:17;;;;;;;97.22;65.45;;;5.90;99.90;;;;;;5171919;22;20210;-84
2021/11/09 00:47:43;;;;;;;93.03;66.00;;;5.90;99.90;;;;;;5118226;28;20165;-85
2021/11/09 00:50:11;;;;;;;89.10;61.95;;;5.90;99.90;;;;;;5099412;28;20688;-84
2021/11/09 00:52:38;;;;;;;102.00;72.57;;;5.70;99.90;;;;;;5100150;28;20305;-84
2021/11/09 00:55:04;;;;;;;94.63;62.42;;;5.70;99.90;;;;;;5118369;28;20155;-85
2021/11/09 00:57:30;;;;;;;92.07;66.32;;;5.70;99.90;;;;;;5118211;28;20253;-84
2021/11/09 00:59:56;;;;;;;93.97;63.87;;;5.60;99.90;;;;;;5119798;28;20214;-84
2021/11/09 01:02:22;;;;;;;94.43;59.30;;;5.60;99.90;;;;;;5100291;28;20177;-84
2021/11/09 01:04:48;;;;;;;96.17;68.87;;;5.60;99.90;;;;;;5118593;28;20491;-84
2021/11/09 01:07:13;;;;;;;95.23;64.47;;;5.60;99.90;;;;;;5099743;28;20174;-85
2021/11/09 01:09:39;;;;;;;94.40;57.43;;;5.60;99.90;;;;;;5117464;28;20179;-84
2021/11/09 01:12:08;;;;;;;97.67;64.83;;;5.60;99.90;;;;;;5117267;28;20255;-84
2021/11/09 01:14:34;;;;;;;92.63;65.45;;;5.60;99.90;;;;;;5099419;28;20166;-84
2021/11/09 01:17:00;;;;;;;92.97;55.40;;;5.60;99.90;;;;;;5117853;28;20238;-84
2021/11/09 01:19:27;;;;;;;98.00;68.50;;;5.60;99.90;;;;;;5117853;28;20424;-84
2021/11/09 01:21:53;;;;;;;98.95;56.22;;;5.60;99.90;;;;;;5099010;28;20408;-84
2021/11/09 01:24:19;;;;;;;91.53;60.30;;;5.60;99.90;;;;;;5117094;28;20215;-84
2021/11/09 01:26:46;;;;;;;93.53;58.13;;;5.50;99.90;;;;;;5098889;28;20431;-84
2021/11/09 01:29:13;;;;;;;101.63;62.33;;;5.50;99.90;;;;;;5099166;28;20194;-84
2021/11/09 01:31:40;;;;;;;94.20;66.30;;;5.60;99.90;;;;;;5117798;28;20251;-84
2021/11/09 01:34:06;;;;;;;96.43;72.03;;;5.60;99.90;;;;;;5099857;28;20169;-84
2021/11/09 01:36:32;;;;;;;95.35;73.13;;;5.50;99.90;;;;;;5099500;28;20541;-84
2021/11/09 01:38:58;;;;;;;99.73;73.20;;;5.50;99.90;;;;;;5117749;28;20182;-84
2021/11/09 01:41:25;;;;;;;94.25;62.83;;;5.40;99.90;;;;;;5117613;28;20166;-85
2021/11/09 01:43:52;;;;;;;97.35;64.25;;;5.40;99.90;;;;;;5100417;28;20189;-84
2021/11/09 01:46:19;;;;;;;94.43;64.13;;;5.40;99.90;;;;;;5100703;28;20264;-85
2021/11/09 01:48:44;;;;;;;93.65;62.70;;;5.50;99.90;;;;;;5118582;28;20190;-85
2021/11/09 01:51:14;;;;;;;96.23;64.63;;;5.50;99.90;;;;;;5100179;28;20209;-85
2021/11/09 01:53:40;;;;;;;91.03;56.85;;;5.40;99.90;;;;;;5101018;28;20411;-85
2021/11/09 01:56:09;;;;;;;91.00;53.97;;;5.30;99.90;;;;;;5118582;28;20169;-85
2021/11/09 01:58:36;;;;;;;90.15;52.35;;;5.40;99.90;;;;;;5118713;28;20242;-85
2021/11/09 02:01:09;;;;;;;97.93;60.53;;;5.40;99.90;;;;;;5119395;28;20216;-85
2021/11/09 02:03:40;;;;;;;90.38;55.28;;;5.30;99.90;;;;;;5118140;28;20513;-85
2021/11/09 02:06:06;;;;;;;89.10;53.80;;;5.30;99.90;;;;;;5099897;28;20159;-85
2021/11/09 02:08:32;;;;;;;96.07;67.05;;;5.30;99.90;;;;;;5099826;28;20198;-85
2021/11/09 02:10:58;;;;;;;94.07;60.38;;;5.30;99.90;;;;;;5118138;28;20190;-85
2021/11/09 02:13:25;;;;;;;91.23;54.60;;;5.20;99.90;;;;;;5118937;28;20166;-85
2021/11/09 02:15:52;;;;;;;95.47;51.45;;;5.20;99.90;;;;;;5118320;28;20530;-85
2021/11/09 02:18:19;;;;;;;92.97;55.78;;;5.20;99.90;;;;;;5117829;28;20213;-85
2021/11/09 02:20:57;;;;;;;90.43;50.50;;;5.10;99.90;;;;;;5118022;28;20622;-85
2021/11/09 02:23:25;;;;;;;90.60;53.53;;;5.10;99.90;;;;;;5100012;28;20621;-85
2021/11/09 02:25:51;;;;;;;94.18;48.22;;;5.00;99.90;;;;;;5100096;28;20204;-85
2021/11/09 02:28:17;;;;;;;93.05;57.13;;;5.00;99.90;;;;;;5099903;28;20190;-85
2021/11/09 02:30:44;;;;;;;94.60;64.50;;;5.00;99.90;;;;;;5117633;28;20207;-85
2021/11/09 02:33:10;;;;;;;92.43;55.28;;;4.90;99.90;;;;;;5099136;28;20176;-85
2021/11/09 02:35:35;;;;;;;90.00;60.43;;;4.90;99.90;;;;;;5098482;28;20232;-85
2021/11/09 02:38:01;;;;;;;93.67;56.87;;;4.90;99.90;;;;;;5099369;28;20408;-84
2021/11/09 02:40:28;;;;;;;92.37;55.33;;;4.90;99.90;;;;;;5118303;28;20400;-85
2021/11/09 02:42:58;;;;;;;89.75;50.88;;;4.90;99.90;;;;;;5099415;28;20415;-84
2021/11/09 02:45:36;;;;;;;94.97;66.40;;;4.90;99.90;;;;;;5098868;28;20182;-85
2021/11/09 02:48:05;;;;;;;95.97;62.03;;;4.90;99.90;;;;;;5098704;28;20166;-85
2021/11/09 02:50:37;;;;;;;91.40;44.25;;;4.90;99.90;;;;;;5099342;28;20731;-85
2021/11/09 02:53:12;;;;;;;88.88;54.17;;;5.00;99.90;;;;;;5098369;28;20170;-85
2021/11/09 02:55:41;;;;;;;94.97;52.20;;;5.00;99.90;;;;;;5117531;28;20217;-85
2021/11/09 03:00:47;;;;;;;88.25;51.97;;;5.10;99.90;;;;;;5117408;28;20167;-85
2021/11/09 03:03:19;;;;;;;89.97;49.72;;;5.20;99.90;;;;;;5098667;28;20633;-85
2021/11/09 03:05:52;;;;;;;86.28;50.30;;;5.20;99.90;;;;;;5098235;28;20178;-84
2021/11/09 03:08:32;;;;;;;101.57;61.45;;;5.20;99.90;;;;;;5098636;28;20186;-85
2021/11/09 03:11:02;;;;;;;102.88;67.07;;;5.30;99.90;;;;;;5098713;28;20736;-84
2021/11/09 03:13:28;;;;;;;95.20;68.13;;;5.20;99.90;;;;;;5116975;28;20212;-85
2021/11/09 03:15:59;;;;;;;91.38;52.88;;;5.20;99.90;;;;;;5098763;28;20162;-85
2021/11/09 03:18:29;;;;;;;89.78;56.22;;;5.30;99.90;;;;;;5082618;28;20216;-85
2021/11/09 03:45:22;;;;;;;90.35;61.30;;;4.70;99.90;;;;;;5116196;28;20188;-85
2021/11/09 03:47:52;;;;;;;95.97;68.18;;;4.60;99.90;;;;;;5097460;28;20151;-85
2021/11/09 03:50:20;;;;;;;94.43;66.88;;;4.60;99.90;;;;;;5098063;28;20193;-85
2021/11/09 03:53:06;;;;;;;95.72;66.90;;;4.60;99.90;;;;;;5116066;28;20177;-84
2021/11/09 04:01:07;;;;;;;92.60;61.50;;;4.40;99.90;;;;;;5116575;28;20151;-84
2021/11/09 04:03:46;;;;;;;96.63;72.88;;;4.30;99.90;;;;;;5115907;28;20196;-84
2021/11/09 04:06:25;;;;;;;96.93;78.90;;;4.40;99.90;;;;;;5115865;28;20150;-84
2021/11/09 04:16:52;;;;;;;100.80;80.93;;;4.20;99.90;;;;;;5116149;28;20159;-84
2021/11/09 04:27:22;;;;;;;99.45;80.40;;;4.10;99.90;;;;;;5116588;28;20161;-85
2021/11/09 04:30:05;;;;;;;109.28;93.57;;;4.10;99.90;;;;;;5116347;28;20197;-85
2021/11/09 05:10:01;;;;;;;96.78;61.58;;;3.80;99.90;;;;;;5119285;28;20196;-85
2021/11/09 05:12:27;;;;;;;92.43;68.95;;;3.80;99.90;;;;;;5100457;28;20628;-84
2021/11/09 05:14:53;;;;;;;95.40;71.50;;;3.90;99.90;;;;;;5100745;28;20170;-85
2021/11/09 05:17:18;;;;;;;105.93;84.87;;;3.90;99.90;;;;;;5119104;28;20162;-84
2021/11/09 05:19:44;;;;;;;96.97;68.10;;;3.90;99.90;;;;;;5118879;28;20227;-84
2021/11/09 05:22:10;;;;;;;93.83;68.10;;;3.90;99.90;;;;;;5118480;28;20159;-85
2021/11/09 05:24:36;;;;;;;97.93;68.73;;;3.90;99.90;;;;;;5100485;28;20885;-85
2021/11/09 05:27:02;;;;;;;97.63;80.20;;;3.90;99.90;;;;;;5100139;28;20170;-85
2021/11/09 05:29:28;;;;;;;103.95;89.32;;;3.80;99.90;;;;;;5100983;28;20526;-85
2021/11/09 05:31:58;;;;;;;102.53;79.85;;;3.80;99.90;;;;;;5100921;28;20283;-85
2021/11/09 05:34:26;;;;;;;102.35;89.00;;;3.80;99.90;;;;;;5100181;28;20166;-85
2021/11/09 05:36:52;;;;;;;95.22;61.00;;;3.70;99.90;;;;;;5100075;28;20163;-85
2021/11/09 05:39:22;;;;;;;100.32;82.20;;;3.70;99.90;;;;;;5118654;28;20178;-85
2021/11/09 05:41:51;;;;;;;99.47;80.20;;;3.70;99.90;;;;;;5118277;28;20159;-85
2021/11/09 05:44:17;;;;;;;102.53;88.43;;;3.70;99.90;;;;;;5100744;28;20162;-85
2021/11/09 05:46:43;;;;;;;111.73;98.70;;;3.70;99.90;;;;;;5118140;28;20174;-84
2021/11/09 05:49:09;;;;;;;103.38;90.53;;;3.70;99.90;;;;;;5100270;28;20463;-85
2021/11/09 05:51:35;;;;;;;94.80;72.77;;;3.70;99.90;;;;;;5117733;28;20213;-85
2021/11/09 05:54:01;;;;;;;95.93;71.72;;;3.70;99.90;;;;;;5118473;28;20178;-85
2021/11/09 05:56:28;;;;;;;95.67;65.90;;;3.80;99.90;;;;;;5100145;28;20158;-84
2021/11/09 05:58:54;;;;;;;97.60;71.32;;;3.80;99.90;;;;;;5118123;28;20507;-84
2021/11/09 06:01:20;;;;;;;90.97;62.30;;;3.70;99.90;;;;;;5099700;28;20166;-85
2021/11/09 06:03:45;;;;;;;108.23;85.87;;;3.70;99.90;;;;;;5118086;28;20169;-85
2021/11/09 06:06:11;;;;;;;96.23;75.03;;;3.70;99.90;;;;;;5117950;28;20246;-84
2021/11/09 06:08:37;;;;;;;103.03;88.57;;;3.60;99.90;;;;;;5099802;28;20192;-84
2021/11/09 06:11:03;;;;;;;97.47;74.57;;;3.50;99.90;;;;;;5117784;28;20444;-85
2021/11/09 06:13:32;;;;;;;99.85;82.40;;;3.40;99.90;;;;;;5099130;28;20400;-84
2021/11/09 06:15:57;;;;;;;100.00;80.70;;;3.40;99.90;;;;;;5117472;28;20163;-84
2021/11/09 06:18:24;;;;;;;97.53;77.47;;;3.40;99.90;;;;;;5099737;28;20662;-84
2021/11/09 06:20:52;;;;;;;103.38;86.15;;;3.40;99.90;;;;;;5117783;28;20694;-85
2021/11/09 06:23:19;;;;;;;100.95;88.38;;;3.40;99.90;;;;;;5098004;28;20634;-83
2021/11/09 06:25:45;;;;;;;124.38;110.93;;;3.40;99.90;;;;;;5117088;28;20211;-84
2021/11/09 06:28:12;;;;;;;136.43;123.50;;;3.40;99.90;;;;;;5117588;28;20707;-84
2021/11/09 06:30:38;;;;;;;110.38;98.07;;;3.40;99.90;;;;;;5117456;28;20542;-84
2021/11/09 06:33:04;;;;;;;98.10;82.80;;;3.40;99.90;;;;;;5117273;28;20185;-84
2021/11/09 06:35:30;;;;;;;99.90;78.40;;;3.40;99.90;;;;;;5099035;28;20633;-85
2021/11/09 06:37:56;;;;;;;100.87;84.17;;;3.50;99.90;;;;;;5099114;28;20257;-84
2021/11/09 06:40:22;;;;;;;96.33;70.13;;;3.60;99.90;;;;;;5098572;28;20166;-85
2021/11/09 06:42:48;;;;;;;101.37;74.13;;;3.70;99.90;;;;;;5117313;28;20400;-85
2021/11/09 06:45:14;;;;;;;104.20;87.57;;;3.60;99.90;;;;;;5117151;28;20515;-84
2021/11/09 06:47:41;;;;;;;106.03;91.97;;;3.70;99.90;;;;;;5098887;28;20227;-85
2021/11/09 06:50:08;;;;;;;158.32;145.02;;;3.70;99.90;;;;;;5098212;28;20186;-84
2021/11/09 06:52:34;;;;;;;140.20;127.07;;;3.80;99.90;;;;;;5117141;28;20300;-84
2021/11/09 06:55:00;;;;;;;127.93;115.05;;;3.80;99.90;;;;;;5116588;28;20162;-84
2021/11/09 06:57:26;;;;;;;138.20;125.13;;;3.80;99.90;;;;;;5098840;28;20253;-85
2021/11/09 06:59:54;;;;;;;139.63;127.23;;;3.80;99.90;;;;;;5098430;28;20217;-84
2021/11/09 07:02:20;;;;;;;128.80;116.40;;;3.90;99.90;;;;;;5116745;28;20163;-84
2021/11/09 07:04:46;;;;;;;123.80;111.27;;;3.80;99.90;;;;;;5098644;28;20219;-85
2021/11/09 07:07:12;;;;;;;128.13;116.00;;;3.90;99.90;;;;;;5117347;28;20925;-85
2021/11/09 07:09:38;;;;;;;123.83;111.50;;;4.00;99.90;;;;;;5117115;28;20424;-85
2021/11/09 07:12:04;;;;;;;128.55;115.80;;;4.00;99.90;;;;;;5118035;28;21020;-85
2021/11/09 07:14:29;;;;;;;134.77;121.93;;;4.10;99.90;;;;;;5118023;28;20195;-83
2021/11/09 07:16:56;;;;;;;134.87;122.03;;;4.10;99.90;;;;;;5117400;28;20237;-85
2021/11/09 07:19:24;;;;;;;165.77;151.13;;;4.10;99.90;;;;;;5117411;28;20183;-85
2021/11/09 07:21:51;;;;;;;182.43;167.88;;;4.10;99.90;;;;;;5098781;28;20169;-85
2021/11/09 07:24:16;;;;;;;161.57;147.57;;;4.10;99.90;;;;;;5117088;28;20162;-84
2021/11/09 07:26:42;;;;;;;192.27;177.43;;;4.10;99.90;;;;;;5099307;28;20253;-84
2021/11/09 07:29:11;;;;;;;183.68;169.32;;;4.10;99.90;;;;;;5098657;28;20428;-85
2021/11/09 07:31:37;;;;;;;168.27;154.60;;;4.20;99.90;;;;;;5117188;28;20231;-84
2021/11/09 07:34:03;;;;;;;138.77;125.72;;;4.20;99.90;;;;;;5098434;28;20162;-84
2021/11/09 07:36:29;;;;;;;167.13;153.07;;;4.30;99.90;;;;;;5116966;28;20166;-84
2021/11/09 07:38:58;;;;;;;182.40;167.93;;;4.30;99.90;;;;;;5117046;28;20209;-84
2021/11/09 07:41:24;;;;;;;165.00;151.60;;;4.30;99.90;;;;;;5098373;28;20454;-83
2021/11/09 07:43:50;;;;;;;171.17;156.70;;;4.40;99.90;;;;;;5117291;28;20171;-85
2021/11/09 07:46:16;;;;;;;175.30;161.80;;;4.40;99.90;;;;;;5098663;28;20428;-85
2021/11/09 07:48:42;;;;;;;152.82;139.70;;;4.40;99.90;;;;;;5116547;28;20193;-84
2021/11/09 07:51:07;;;;;;;172.20;158.20;;;4.50;99.90;;;;;;5115958;28;20546;-85
2021/11/09 07:53:47;;;;;;;157.10;143.90;;;4.60;99.90;;;;;;5098466;28;20169;-85
2021/11/09 07:56:24;;;;;;;155.98;142.20;;;4.70;99.90;;;;;;5098487;28;20248;-84
2021/11/09 08:02:12;;;;;;;158.55;144.98;;;4.90;99.90;;;;;;5116457;28;20215;-84
2021/11/09 08:04:30;;;;;;;155.82;142.23;;;5.00;99.90;;;;;;5111261;28;20174;-85
2021/11/09 08:07:16;;;;;;;161.88;148.50;;;5.10;99.90;;;;;;5118003;28;20145;-86
2021/11/09 08:09:41;;;;;;;158.30;144.18;;;5.20;99.90;;;;;;5117436;28;20186;-86
2021/11/09 08:12:10;;;;;;;163.23;149.83;;;5.20;99.90;;;;;;5099407;28;20190;-86
2021/11/09 08:14:36;;;;;;;156.32;143.10;;;5.30;99.90;;;;;;5119061;28;20166;-85
2021/11/09 08:17:03;;;;;;;183.77;169.30;;;5.30;99.90;;;;;;5099683;28;20163;-85
2021/11/09 08:19:31;;;;;;;169.07;155.32;;;5.40;99.90;;;;;;5098843;28;20197;-85
2021/11/09 08:21:58;;;;;;;200.35;185.27;;;5.50;99.90;;;;;;5118416;28;20184;-86
2021/11/09 08:24:25;;;;;;;194.55;178.98;;;5.50;99.90;;;;;;5099119;28;20182;-86
2021/11/09 08:26:56;;;;;;;168.95;154.65;;;5.60;99.90;;;;;;5098883;28;20178;-85
2021/11/09 08:29:25;;;;;;;177.00;162.95;;;5.60;99.90;;;;;;5098522;28;20185;-86
2021/11/09 08:32:57;;;;;;;186.52;172.25;;;5.70;99.90;;;;;;5116404;28;20201;-86
2021/11/09 08:38:58;;;;;;;186.10;171.88;;;5.90;99.90;;;;;;5122355;28;20267;-86
2021/11/09 08:41:39;;;;;;;199.13;183.88;;;5.90;99.90;;;;;;5094698;28;20182;-85
2021/11/09 08:44:34;;;;;;;173.32;159.13;;;5.90;99.90;;;;;;5103729;28;20179;-86
2021/11/09 08:48:16;;;;;;;158.07;144.95;;;6.00;99.90;;;;;;5103056;28;20182;-86
2021/11/09 08:57:59;;;;;;;187.98;173.77;;;6.20;99.90;;;;;;5024198;28;20188;-85
2021/11/09 09:07:03;;;;;;;214.93;198.38;;;6.50;99.90;;;;;;5039352;28;20227;-85
2021/11/09 09:10:23;;;;;;;;;;;;;;;;;;;;;
2021/11/09 09:13:33;;;;;;;168.05;154.48;;;6.70;99.90;;;;;;5014071;28;20249;-85
2021/11/09 09:16:22;;;;;;;175.07;160.07;;;6.70;99.90;;;;;;5061058;28;20278;-85
2021/11/09 09:19:05;;;;;;;190.63;175.18;;;6.80;99.90;;;;;;5018392;28;20196;-85
2021/11/09 10:04:50;;;;;;;94.32;68.80;;;8.50;99.90;;;;;;4974202;28;20291;-82
2021/11/09 10:08:01;;;;;;;;;;;;;;;;;;;;;
2021/11/09 10:11:18;;;;;;;120.68;108.57;;;8.70;99.90;;;;;;4957783;29;20205;-84
2021/11/09 10:14:38;;;;;;;102.38;90.78;;;8.80;99.90;;;;;;4953291;29;20183;-84
2021/11/09 10:17:14;;;;;;;;;;;;;;;;;;;;;
2021/11/09 10:20:42;;;;;;;;;;;;;;;;;;;;;
2021/11/09 10:27:07;;;;;;;92.25;38.08;;;9.20;99.90;;;;;;4957599;29;20180;-84
2021/11/09 10:29:59;;;;;;;87.03;32.67;;;9.50;99.90;;;;;;5051772;28;20197;-83
2021/11/09 10:32:32;;;;;;;84.50;34.58;;;9.50;99.90;;;;;;5040528;28;20195;-85
2021/11/09 10:35:03;;;;;;;90.40;48.05;;;9.50;99.90;;;;;;5039651;28;20168;-84
2021/11/09 10:37:34;;;;;;;93.78;65.70;;;9.70;99.90;;;;;;5057471;28;20148;-84
2021/11/09 10:40:51;;;;;;;95.13;63.75;;;9.80;99.90;;;;;;5058217;28;20592;-85
2021/11/09 10:43:33;;;;;;;91.50;52.30;;;9.90;99.90;;;;;;5039873;28;20173;-85
2021/11/09 10:46:02;;;;;;;98.03;54.50;;;9.90;99.90;;;;;;5039581;28;20157;-84
2021/11/09 10:48:28;;;;;;;79.63;26.20;;;10.10;99.90;;;;;;5038785;28;20181;-85
2021/11/09 10:51:17;;;;;;;78.85;23.02;;;10.20;99.90;;;;;;5057128;28;20181;-83
2021/11/09 10:54:07;;;;;;;;;;;;;;;;;;;;;
2021/11/09 10:56:38;;;;;;;79.28;17.88;;;10.50;99.90;;;;;;5056096;28;20149;-85
2021/11/09 10:59:25;;;;;;;81.22;19.83;;;10.70;99.90;;;;;;5039762;28;20192;-84
2021/11/09 11:04:59;;;;;;;76.20;22.02;;;10.80;99.90;;;;;;5058814;28;20180;-84
2021/11/09 11:07:33;;;;;;;82.75;30.77;;;10.80;99.90;;;;;;5040000;28;20180;-84
2021/11/09 11:10:35;;;;;;;79.50;27.67;;;11.00;99.90;;;;;;5055663;28;20219;-84
2021/11/09 11:13:57;;;;;;;78.47;22.15;;;11.00;99.90;;;;;;5038803;28;20194;-84
2021/11/09 11:17:24;;;;;;;80.65;30.48;;;10.80;99.90;;;;;;5009617;28;20660;-83
2021/11/09 11:21:01;;;;;;;;;;;;;;;;;;;;;
2021/11/09 11:23:36;;;;;;;74.63;15.55;;;11.20;99.90;;;;;;4968512;28;20767;-84
2021/11/09 11:26:29;;;;;;;81.65;35.70;;;11.30;99.90;;;;;;5039328;28;20179;-84
2021/11/09 11:29:14;;;;;;;84.38;41.35;;;11.20;97.60;;;;;;5036026;28;20322;-84
2021/11/09 11:32:21;;;;;;;85.07;42.45;;;11.20;95.50;;;;;;5039302;28;20200;-83
2021/11/09 11:34:56;;;;;;;84.78;42.67;;;11.20;98.60;;;;;;5034394;28;20184;-83
2021/11/09 11:37:27;;;;;;;88.80;43.60;;;11.30;98.10;;;;;;5039542;28;20160;-84
2021/11/09 11:40:04;;;;;;;78.82;31.67;;;11.40;95.70;;;;;;5039345;28;20185;-85
2021/11/09 11:42:48;;;;;;;80.60;30.02;;;11.50;95.20;;;;;;5040305;28;20177;-84
2021/11/09 11:45:14;;;;;;;76.22;21.50;;;11.50;93.90;;;;;;5057733;28;20176;-84
2021/11/09 11:48:36;;;;;;;72.57;13.60;;;11.50;90.60;;;;;;5039165;28;20208;-84
2021/11/09 11:51:30;;;;;;;74.25;19.35;;;11.70;93.90;;;;;;4964944;28;20506;-84
2021/11/09 11:54:21;;;;;;;72.70;17.13;;;11.70;90.10;;;;;;5038257;28;20169;-84
2021/11/09 11:57:11;;;;;;;75.72;21.90;;;11.70;90.90;;;;;;5039009;28;20165;-85
2021/11/09 11:59:46;;;;;;;75.03;21.92;;;11.60;92.30;;;;;;5036949;28;20215;-84
2021/11/09 12:02:48;;;;;;;75.10;24.95;;;11.60;89.10;;;;;;5038867;28;20172;-84
2021/11/09 12:05:46;;;;;;;75.20;21.50;;;11.60;91.10;;;;;;5037884;28;20195;-84
2021/11/09 12:08:15;;;;;;;76.30;20.67;;;11.60;86.60;;;;;;5040749;28;20278;-84
2021/11/09 12:10:47;;;;;;;76.03;23.13;;;11.50;90.30;;;;;;5059905;28;20667;-83
2021/11/09 12:13:18;;;;;;;75.03;22.90;;;11.50;92.80;;;;;;5059895;28;20163;-83
2021/11/09 12:15:56;;;;;;;72.15;14.68;;;11.50;87.60;;;;;;5059871;28;20149;-83
2021/11/09 12:18:42;;;;;;;73.70;20.20;;;11.50;80.90;;;;;;5059766;28;20186;-83
2021/11/09 12:21:35;;;;;;;76.75;23.23;;;11.50;84.50;;;;;;5059260;28;20149;-83
2021/11/09 12:24:19;;;;;;;74.90;24.23;;;11.50;89.20;;;;;;5058810;28;20644;-83
2021/11/09 12:26:57;;;;;;;74.10;20.48;;;11.50;89.40;;;;;;5058603;28;20175;-83
2021/11/09 12:29:40;;;;;;;73.78;20.98;;;11.50;88.30;;;;;;5058982;28;20182;-84
2021/11/09 12:32:20;;;;;;;75.05;22.58;;;11.40;85.80;;;;;;5059001;28;20195;-83
2021/11/09 12:35:03;;;;;;;73.63;16.40;;;11.40;90.00;;;;;;5040955;28;20640;-83
2021/11/09 12:37:31;;;;;;;72.95;19.58;;;11.50;91.80;;;;;;5059549;28;20478;-84
2021/11/09 12:40:29;;;;;;;77.28;19.85;;;11.40;88.70;;;;;;5041248;28;20188;-84
2021/11/09 12:43:17;;;;;;;74.22;23.38;;;11.50;83.70;;;;;;5058568;28;20188;-83
2021/11/09 12:46:02;;;;;;;71.60;14.93;;;11.50;86.90;;;;;;5143575;22;20234;-87
2021/11/09 12:48:34;;;;;;;69.05;12.25;;;11.50;87.20;;;;;;5103574;28;20557;-87
2021/11/09 12:51:06;;;;;;;70.65;12.93;;;11.50;77.30;;;;;;5105564;28;20188;-88
2021/11/09 12:53:41;;;;;;;70.43;15.10;;;11.50;78.80;;;;;;5105668;28;20158;-87
2021/11/09 12:56:20;;;;;;;70.43;12.88;;;11.40;77.40;;;;;;5103787;28;20678;-87
2021/11/09 12:59:06;;;;;;;72.13;13.30;;;11.40;74.50;;;;;;5104893;28;20186;-87
2021/11/09 13:02:39;;;;;;;70.93;12.45;;;11.50;77.40;;;;;;5104883;28;20181;-88
2021/11/09 13:07:41;;;;;;;71.07;12.68;;;11.50;76.00;;;;;;5123284;28;20163;-87
2021/11/09 13:10:22;;;;;;;70.25;9.15;;;11.50;75.00;;;;;;5122344;28;20187;-86
2021/11/09 13:12:52;;;;;;;74.25;14.05;;;11.60;78.10;;;;;;5102361;28;20529;-87
2021/11/09 13:15:37;;;;;;;75.30;13.48;;;11.50;78.00;;;;;;5100879;28;20170;-86
2021/11/09 13:18:12;;;;;;;70.95;13.98;;;11.60;76.90;;;;;;5122213;28;20272;-86
2021/11/09 13:20:55;;;;;;;70.65;15.35;;;11.60;80.90;;;;;;5108177;28;20181;-87
2021/11/09 13:26:59;;;;;;;;;;;;;;;;;;;;;
2021/11/09 13:29:25;;;;;;;72.18;9.05;;;11.60;79.10;;;;;;5121256;28;20277;-87
2021/11/09 13:31:58;;;;;;;71.97;11.80;;;11.60;79.70;;;;;;5104643;28;20218;-88
2021/11/09 13:34:42;;;;;;;80.18;11.27;;;11.60;78.70;;;;;;5105059;28;20410;-87
2021/11/09 13:37:22;;;;;;;70.30;9.60;;;11.60;83.80;;;;;;5104636;28;20167;-87
2021/11/09 13:40:01;;;;;;;69.57;10.05;;;11.60;85.00;;;;;;5122144;28;20205;-87
2021/11/09 13:42:27;;;;;;;73.32;17.88;;;11.60;84.30;;;;;;5104140;28;20170;-87
2021/11/09 13:44:57;;;;;;;74.38;19.70;;;11.60;88.90;;;;;;5122006;28;20709;-87
2021/11/09 13:47:36;;;;;;;70.13;11.30;;;11.60;89.80;;;;;;5121628;28;20209;-88
2021/11/09 13:50:13;;;;;;;70.82;13.68;;;11.60;86.30;;;;;;5086687;28;20197;-87
2021/11/09 13:52:50;;;;;;;77.43;15.98;;;11.60;85.00;;;;;;5120763;28;20154;-86
2021/11/09 13:55:18;;;;;;;78.18;18.20;;;11.50;80.00;;;;;;5100772;28;20166;-86
2021/11/09 13:57:45;;;;;;;76.85;22.50;;;11.40;81.50;;;;;;5119071;28;20197;-86
2021/11/09 14:00:25;;;;;;;72.38;19.42;;;11.50;89.90;;;;;;5100985;28;20197;-86
2021/11/09 14:09:30;;;;;;;73.75;20.83;;;11.50;81.10;;;;;;5072952;28;20186;-87
2021/11/09 14:14:58;;;;;;;74.43;19.52;;;11.50;73.70;;;;;;5120510;28;20147;-87
2021/11/09 14:17:35;;;;;;;72.53;16.40;;;11.50;69.30;;;;;;5101657;28;20162;-87
2021/11/09 14:20:16;;;;;;;74.18;23.25;;;11.40;67.90;;;;;;5119768;28;20206;-87
2021/11/09 14:22:46;;;;;;;72.82;17.20;;;11.40;72.20;;;;;;5085512;28;20154;-86
2021/11/09 14:25:18;;;;;;;74.00;15.85;;;11.40;66.70;;;;;;5119935;28;20162;-86
2021/11/09 14:27:48;;;;;;;69.63;11.80;;;11.40;60.90;;;;;;5120293;28;20150;-87
2021/11/09 14:30:24;;;;;;;74.07;14.50;;;11.30;59.30;;;;;;5118805;28;20167;-87
2021/11/09 14:32:50;;;;;;;74.85;20.70;;;11.30;63.30;;;;;;5118824;28;20186;-86
2021/11/09 14:35:23;;;;;;;72.60;13.88;;;11.30;61.70;;;;;;5101754;28;20249;-88
2021/11/09 14:38:00;;;;;;;69.43;11.35;;;11.20;61.90;;;;;;5121572;28;20217;-87
2021/11/09 14:40:30;;;;;;;70.47;12.98;;;11.20;63.60;;;;;;5103451;28;20166;-87
2021/11/09 14:43:07;;;;;;;73.47;22.60;;;11.20;63.90;;;;;;5102358;28;20252;-87
2021/11/09 14:51:31;;;;;;;73.15;20.40;;;11.20;75.10;;;;;;5120494;28;20174;-88
2021/11/09 14:54:17;;;;;;;72.25;20.60;;;11.10;76.70;;;;;;5102017;28;20207;-87
2021/11/09 14:56:43;;;;;;;73.80;21.67;;;11.00;75.70;;;;;;5101845;28;20166;-86
2021/11/09 14:59:21;;;;;;;74.28;18.13;;;11.00;78.30;;;;;;5100685;28;20189;-86
2021/11/09 15:02:07;;;;;;;71.60;13.32;;;10.90;80.70;;;;;;5101456;28;20170;-87
2021/11/09 15:04:40;;;;;;;69.47;8.48;;;11.00;86.00;;;;;;5101458;28;20171;-86
2021/11/09 15:10:30;;;;;;;73.03;9.63;;;10.90;83.50;;;;;;5055638;28;20271;-86
2021/11/09 15:13:10;;;;;;;73.63;9.90;;;10.80;83.20;;;;;;5054137;28;20532;-86
2021/11/09 15:29:24;;;;;;;75.05;20.92;;;10.50;96.60;;;;;;5117115;28;20225;-86
2021/11/09 15:39:27;;;;;;;72.80;16.13;;;10.30;99.90;;;;;;5117441;28;20186;-86
2021/11/09 15:41:57;;;;;;;73.97;15.05;;;10.30;99.90;;;;;;5101148;28;20675;-86
2021/11/09 15:44:23;;;;;;;74.45;15.85;;;10.20;99.90;;;;;;5098369;28;20198;-87
2021/11/09 15:47:00;;;;;;;81.88;20.05;;;10.10;99.90;;;;;;5098335;28;20189;-87
2021/11/09 15:49:27;;;;;;;74.18;20.88;;;10.10;99.90;;;;;;5098726;28;20193;-86
2021/11/09 15:52:05;;;;;;;80.60;25.45;;;10.10;99.90;;;;;;5098513;28;20259;-86
2021/11/09 15:54:36;;;;;;;78.80;26.10;;;10.00;99.90;;;;;;5116958;28;20190;-87
2021/11/09 15:57:10;;;;;;;76.03;27.70;;;9.80;99.90;;;;;;5099185;28;20186;-86
2021/11/09 15:59:36;;;;;;;80.82;29.60;;;9.70;99.90;;;;;;5116853;28;20177;-87
2021/11/09 16:02:03;;;;;;;76.07;27.57;;;9.70;99.90;;;;;;5116881;28;20231;-86
2021/11/09 16:04:36;;;;;;;76.93;27.75;;;9.60;99.90;;;;;;5098739;28;20472;-86
2021/11/09 16:07:02;;;;;;;77.93;26.42;;;9.60;99.90;;;;;;5098742;28;20162;-87
2021/11/09 16:09:28;;;;;;;82.55;24.20;;;9.60;99.90;;;;;;5097757;28;20240;-86
2021/11/09 16:11:55;;;;;;;73.18;19.77;;;9.50;99.90;;;;;;5099370;28;20566;-86
2021/11/09 16:14:21;;;;;;;73.20;19.92;;;9.50;99.90;;;;;;5116387;28;20216;-86
2021/11/09 16:16:50;;;;;;;75.47;22.08;;;9.40;99.90;;;;;;5115727;28;20199;-86
2021/11/09 16:19:16;;;;;;;75.03;21.75;;;9.40;99.90;;;;;;5115896;28;20183;-86
2021/11/09 16:21:43;;;;;;;73.15;16.42;;;9.30;99.90;;;;;;5098288;28;20638;-86
2021/11/09 16:24:14;;;;;;;75.30;18.90;;;9.30;99.90;;;;;;5098195;28;20545;-86
2021/11/09 16:26:41;;;;;;;77.22;19.50;;;9.30;99.90;;;;;;5097967;28;20185;-86
2021/11/09 16:29:07;;;;;;;74.10;15.77;;;9.20;99.90;;;;;;5098108;28;20285;-87
2021/11/09 16:31:43;;;;;;;76.15;14.45;;;9.10;99.90;;;;;;5123012;28;20239;-87
2021/11/09 16:34:13;;;;;;;74.15;15.65;;;9.10;99.90;;;;;;5111488;28;20161;-87